sensor_id;sensor_type;location;lat;lon;timestamp;P1;P2;P0
63662;PMS5003;49815;51.618;0.336;2022-08-11T00:00:15;8;8;
63662;PMS5003;49815;51.618;0.336;2022-08-11T00:02:41;7;7;
63662;PMS5003;49815;51.618;0.336;2022-08-11T00:05:07;7;7;
63662;PMS5003;49815;51.618;0.336;2022-08-11T00:07:31;8;6;
63662;PMS5003;49815;51.618;0.336;2022-08-11T00:09:56;7;5;
63662;PMS5003;49815;51.618;0.336;2022-08-11T00:12:22;6;6;
63662;PMS5003;49815;51.618;0.336;2022-08-11T00:14:48;4;4;
63662;PMS5003;49815;51.618;0.336;2022-08-11T00:17:12;9;6;
63662;PMS5003;49815;51.618;0.336;2022-08-11T00:19:38;9;8;
63662;PMS5003;49815;51.618;0.336;2022-08-11T00:22:03;4;4;
63662;PMS5003;49815;51.618;0.336;2022-08-11T00:24:31;6;5;
63662;PMS5003;49815;51.618;0.336;2022-08-11T00:26:53;6;6;
63662;PMS5003;49815;51.618;0.336;2022-08-11T00:29:18;4;4;
63662;PMS5003;49815;51.618;0.336;2022-08-11T00:31:45;6;6;
63662;PMS5003;49815;51.618;0.336;2022-08-11T00:34:10;4;4;
63662;PMS5003;49815;51.618;0.336;2022-08-11T00:36:37;4;4;
63662;PMS5003;49815;51.618;0.336;2022-08-11T00:39:02;6;6;
63662;PMS5003;49815;51.618;0.336;2022-08-11T00:41:30;9;8;
63662;PMS5003;49815;51.618;0.336;2022-08-11T00:43:55;7;5;
63662;PMS5003;49815;51.618;0.336;2022-08-11T00:46:17;6;6;
63662;PMS5003;49815;51.618;0.336;2022-08-11T00:48:46;6;6;
63662;PMS5003;49815;51.618;0.336;2022-08-11T00:51:09;6;6;
63662;PMS5003;49815;51.618;0.336;2022-08-11T00:53:36;7;7;
63662;PMS5003;49815;51.618;0.336;2022-08-11T01:00:53;8;6;
63662;PMS5003;49815;51.618;0.336;2022-08-11T01:03:16;10;8;
63662;PMS5003;49815;51.618;0.336;2022-08-11T01:05:41;9;6;
63662;PMS5003;49815;51.618;0.336;2022-08-11T01:12:57;7;7;
63662;PMS5003;49815;51.618;0.336;2022-08-11T01:15:31;9;7;
63662;PMS5003;49815;51.618;0.336;2022-08-11T01:20:14;9;9;
63662;PMS5003;49815;51.618;0.336;2022-08-11T01:22:41;8;8;
63662;PMS5003;49815;51.618;0.336;2022-08-11T01:27:35;7;7;
63662;PMS5003;49815;51.618;0.336;2022-08-11T01:37:15;10;9;
63662;PMS5003;49815;51.618;0.336;2022-08-11T01:39:36;9;9;
63662;PMS5003;49815;51.618;0.336;2022-08-11T01:42:05;10;10;
63662;PMS5003;49815;51.618;0.336;2022-08-11T01:46:49;10;10;
63662;PMS5003;49815;51.618;0.336;2022-08-11T01:49:14;9;9;
63662;PMS5003;49815;51.618;0.336;2022-08-11T01:54:04;11;11;
63662;PMS5003;49815;51.618;0.336;2022-08-11T01:56:33;12;12;
63662;PMS5003;49815;51.618;0.336;2022-08-11T01:58:56;11;11;
63662;PMS5003;49815;51.618;0.336;2022-08-11T02:01:26;13;13;
63662;PMS5003;49815;51.618;0.336;2022-08-11T02:03:48;15;15;
63662;PMS5003;49815;51.618;0.336;2022-08-11T02:06:13;17;16;
63662;PMS5003;49815;51.618;0.336;2022-08-11T02:08:41;18;18;
63662;PMS5003;49815;51.618;0.336;2022-08-11T02:11:07;19;18;
63662;PMS5003;49815;51.618;0.336;2022-08-11T02:13:33;18;16;
63662;PMS5003;49815;51.618;0.336;2022-08-11T02:15:55;18;18;
63662;PMS5003;49815;51.618;0.336;2022-08-11T02:18:20;17;17;
63662;PMS5003;49815;51.618;0.336;2022-08-11T02:20:47;22;21;
63662;PMS5003;49815;51.618;0.336;2022-08-11T02:23:16;22;20;
63662;PMS5003;49815;51.618;0.336;2022-08-11T02:25:37;19;19;
63662;PMS5003;49815;51.618;0.336;2022-08-11T02:28:03;23;22;
63662;PMS5003;49815;51.618;0.336;2022-08-11T02:30:30;24;24;
63662;PMS5003;49815;51.618;0.336;2022-08-11T02:32:54;27;24;
63662;PMS5003;49815;51.618;0.336;2022-08-11T02:35:18;29;27;
63662;PMS5003;49815;51.618;0.336;2022-08-11T02:37:47;30;30;
63662;PMS5003;49815;51.618;0.336;2022-08-11T02:40:10;23;23;
63662;PMS5003;49815;51.618;0.336;2022-08-11T02:42:37;36;35;
63662;PMS5003;49815;51.618;0.336;2022-08-11T02:45:06;39;36;
63662;PMS5003;49815;51.618;0.336;2022-08-11T02:47:30;28;28;
63662;PMS5003;49815;51.618;0.336;2022-08-11T02:49:52;35;34;
63662;PMS5003;49815;51.618;0.336;2022-08-11T02:52:18;36;35;
63662;PMS5003;49815;51.618;0.336;2022-08-11T02:54:43;45;44;
63662;PMS5003;49815;51.618;0.336;2022-08-11T02:57:08;37;34;
63662;PMS5003;49815;51.618;0.336;2022-08-11T02:59:40;45;43;
63662;PMS5003;49815;51.618;0.336;2022-08-11T03:01:57;37;37;
63662;PMS5003;49815;51.618;0.336;2022-08-11T03:04:24;40;40;
63662;PMS5003;49815;51.618;0.336;2022-08-11T03:06:48;36;33;
63662;PMS5003;49815;51.618;0.336;2022-08-11T03:09:16;34;34;
63662;PMS5003;49815;51.618;0.336;2022-08-11T03:11:43;41;40;
63662;PMS5003;49815;51.618;0.336;2022-08-11T03:14:09;34;34;
63662;PMS5003;49815;51.618;0.336;2022-08-11T03:16:32;37;36;
63662;PMS5003;49815;51.618;0.336;2022-08-11T03:18:57;34;33;
63662;PMS5003;49815;51.618;0.336;2022-08-11T03:21:20;37;37;
63662;PMS5003;49815;51.618;0.336;2022-08-11T03:23:47;42;42;
63662;PMS5003;49815;51.618;0.336;2022-08-11T03:26:14;38;36;
63662;PMS5003;49815;51.618;0.336;2022-08-11T03:28:37;41;39;
63662;PMS5003;49815;51.618;0.336;2022-08-11T03:31:09;41;39;
63662;PMS5003;49815;51.618;0.336;2022-08-11T03:33:28;38;37;
63662;PMS5003;49815;51.618;0.336;2022-08-11T03:35:56;46;43;
63662;PMS5003;49815;51.618;0.336;2022-08-11T03:38:18;49;47;
63662;PMS5003;49815;51.618;0.336;2022-08-11T03:40:49;57;57;
63662;PMS5003;49815;51.618;0.336;2022-08-11T03:43:10;38;38;
63662;PMS5003;49815;51.618;0.336;2022-08-11T03:45:34;50;50;
63662;PMS5003;49815;51.618;0.336;2022-08-11T03:48:02;43;43;
63662;PMS5003;49815;51.618;0.336;2022-08-11T03:50:31;47;42;
63662;PMS5003;49815;51.618;0.336;2022-08-11T03:52:52;55;54;
63662;PMS5003;49815;51.618;0.336;2022-08-11T03:55:18;47;47;
63662;PMS5003;49815;51.618;0.336;2022-08-11T03:57:47;46;46;
63662;PMS5003;49815;51.618;0.336;2022-08-11T04:00:13;44;43;
63662;PMS5003;49815;51.618;0.336;2022-08-11T04:07:27;46;44;
63662;PMS5003;49815;51.618;0.336;2022-08-11T04:12:19;47;47;
63662;PMS5003;49815;51.618;0.336;2022-08-11T04:14:44;48;48;
63662;PMS5003;49815;51.618;0.336;2022-08-11T04:17:16;49;49;
63662;PMS5003;49815;51.618;0.336;2022-08-11T04:24:31;47;47;
63662;PMS5003;49815;51.618;0.336;2022-08-11T04:26:57;42;42;
63662;PMS5003;49815;51.618;0.336;2022-08-11T04:29:15;46;46;
63662;PMS5003;49815;51.618;0.336;2022-08-11T04:31:37;48;48;
63662;PMS5003;49815;51.618;0.336;2022-08-11T04:38:57;54;54;
63662;PMS5003;49815;51.618;0.336;2022-08-11T04:46:20;44;44;
63662;PMS5003;49815;51.618;0.336;2022-08-11T04:51:07;45;45;
63662;PMS5003;49815;51.618;0.336;2022-08-11T04:53:26;45;45;
63662;PMS5003;49815;51.618;0.336;2022-08-11T04:55:58;46;46;
63662;PMS5003;49815;51.618;0.336;2022-08-11T04:58:16;53;51;
63662;PMS5003;49815;51.618;0.336;2022-08-11T05:00:44;60;59;
63662;PMS5003;49815;51.618;0.336;2022-08-11T05:05:38;59;55;
63662;PMS5003;49815;51.618;0.336;2022-08-11T05:08:03;51;51;
63662;PMS5003;49815;51.618;0.336;2022-08-11T05:10:27;51;49;
63662;PMS5003;49815;51.618;0.336;2022-08-11T05:12:48;60;56;
63662;PMS5003;49815;51.618;0.336;2022-08-11T05:15:15;47;47;
63662;PMS5003;49815;51.618;0.336;2022-08-11T05:17:41;56;54;
63662;PMS5003;49815;51.618;0.336;2022-08-11T05:20:08;55;51;
63662;PMS5003;49815;51.618;0.336;2022-08-11T05:22:31;55;54;
63662;PMS5003;49815;51.618;0.336;2022-08-11T05:24:58;56;56;
63662;PMS5003;49815;51.618;0.336;2022-08-11T05:27:22;61;58;
63662;PMS5003;49815;51.618;0.336;2022-08-11T05:29:49;63;60;
63662;PMS5003;49815;51.618;0.336;2022-08-11T05:32:14;63;60;
63662;PMS5003;49815;51.618;0.336;2022-08-11T05:34:41;57;57;
63662;PMS5003;49815;51.618;0.336;2022-08-11T05:37:04;45;45;
63662;PMS5003;49815;51.618;0.336;2022-08-11T05:39:30;53;52;
63662;PMS5003;49815;51.618;0.336;2022-08-11T05:41:56;50;49;
63662;PMS5003;49815;51.618;0.336;2022-08-11T05:44:20;57;54;
63662;PMS5003;49815;51.618;0.336;2022-08-11T05:46:46;50;50;
63662;PMS5003;49815;51.618;0.336;2022-08-11T05:49:12;59;55;
63662;PMS5003;49815;51.618;0.336;2022-08-11T05:51:38;50;49;
63662;PMS5003;49815;51.618;0.336;2022-08-11T05:54:03;50;50;
63662;PMS5003;49815;51.618;0.336;2022-08-11T05:56:28;48;48;
63662;PMS5003;49815;51.618;0.336;2022-08-11T05:58:54;51;50;
63662;PMS5003;49815;51.618;0.336;2022-08-11T06:01:21;53;50;
63662;PMS5003;49815;51.618;0.336;2022-08-11T06:03:44;48;47;
63662;PMS5003;49815;51.618;0.336;2022-08-11T06:06:10;44;44;
63662;PMS5003;49815;51.618;0.336;2022-08-11T06:08:35;48;46;
63662;PMS5003;49815;51.618;0.336;2022-08-11T06:11:03;37;36;
63662;PMS5003;49815;51.618;0.336;2022-08-11T06:13:26;37;37;
63662;PMS5003;49815;51.618;0.336;2022-08-11T06:15:52;37;36;
63662;PMS5003;49815;51.618;0.336;2022-08-11T06:18:17;38;36;
63662;PMS5003;49815;51.618;0.336;2022-08-11T06:20:44;31;31;
63662;PMS5003;49815;51.618;0.336;2022-08-11T06:23:09;37;37;
63662;PMS5003;49815;51.618;0.336;2022-08-11T06:25:35;36;32;
63662;PMS5003;49815;51.618;0.336;2022-08-11T06:28:00;34;29;
63662;PMS5003;49815;51.618;0.336;2022-08-11T06:30:32;26;24;
63662;PMS5003;49815;51.618;0.336;2022-08-11T06:32:50;30;28;
63662;PMS5003;49815;51.618;0.336;2022-08-11T06:35:18;21;21;
63662;PMS5003;49815;51.618;0.336;2022-08-11T06:37:44;24;23;
63662;PMS5003;49815;51.618;0.336;2022-08-11T06:40:07;22;22;
63662;PMS5003;49815;51.618;0.336;2022-08-11T06:42:33;21;21;
63662;PMS5003;49815;51.618;0.336;2022-08-11T06:45:00;27;26;
63662;PMS5003;49815;51.618;0.336;2022-08-11T06:47:22;24;23;
63662;PMS5003;49815;51.618;0.336;2022-08-11T06:49:47;22;20;
63662;PMS5003;49815;51.618;0.336;2022-08-11T06:52:12;20;17;
63662;PMS5003;49815;51.618;0.336;2022-08-11T06:54:39;26;22;
63662;PMS5003;49815;51.618;0.336;2022-08-11T06:57:03;17;17;
63662;PMS5003;49815;51.618;0.336;2022-08-11T06:59:27;17;17;
63662;PMS5003;49815;51.618;0.336;2022-08-11T07:01:56;18;18;
63662;PMS5003;49815;51.618;0.336;2022-08-11T07:04:20;19;19;
63662;PMS5003;49815;51.618;0.336;2022-08-11T07:06:49;18;18;
63662;PMS5003;49815;51.618;0.336;2022-08-11T07:09:20;20;18;
63662;PMS5003;49815;51.618;0.336;2022-08-11T07:11:44;19;18;
63662;PMS5003;49815;51.618;0.336;2022-08-11T07:14:02;16;15;
63662;PMS5003;49815;51.618;0.336;2022-08-11T07:16:28;16;16;
63662;PMS5003;49815;51.618;0.336;2022-08-11T07:18:53;18;16;
63662;PMS5003;49815;51.618;0.336;2022-08-11T07:21:20;15;15;
63662;PMS5003;49815;51.618;0.336;2022-08-11T07:23:44;19;18;
63662;PMS5003;49815;51.618;0.336;2022-08-11T07:26:09;12;12;
63662;PMS5003;49815;51.618;0.336;2022-08-11T07:28:36;16;16;
63662;PMS5003;49815;51.618;0.336;2022-08-11T07:31:02;21;20;
63662;PMS5003;49815;51.618;0.336;2022-08-11T07:33:27;19;17;
63662;PMS5003;49815;51.618;0.336;2022-08-11T07:35:52;16;15;
63662;PMS5003;49815;51.618;0.336;2022-08-11T07:38:17;19;18;
63662;PMS5003;49815;51.618;0.336;2022-08-11T07:40:42;22;20;
63662;PMS5003;49815;51.618;0.336;2022-08-11T07:43:08;16;14;
63662;PMS5003;49815;51.618;0.336;2022-08-11T07:45:33;15;15;
63662;PMS5003;49815;51.618;0.336;2022-08-11T07:47:58;18;17;
63662;PMS5003;49815;51.618;0.336;2022-08-11T07:50:23;23;23;
63662;PMS5003;49815;51.618;0.336;2022-08-11T07:52:48;25;25;
63662;PMS5003;49815;51.618;0.336;2022-08-11T07:55:14;38;37;
63662;PMS5003;49815;51.618;0.336;2022-08-11T07:57:39;45;45;
63662;PMS5003;49815;51.618;0.336;2022-08-11T08:00:05;32;31;
63662;PMS5003;49815;51.618;0.336;2022-08-11T08:02:30;31;26;
63662;PMS5003;49815;51.618;0.336;2022-08-11T08:04:56;14;13;
63662;PMS5003;49815;51.618;0.336;2022-08-11T08:07:20;16;15;
63662;PMS5003;49815;51.618;0.336;2022-08-11T08:09:46;17;16;
63662;PMS5003;49815;51.618;0.336;2022-08-11T08:12:12;18;16;
63662;PMS5003;49815;51.618;0.336;2022-08-11T08:14:37;20;18;
63662;PMS5003;49815;51.618;0.336;2022-08-11T08:17:03;17;16;
63662;PMS5003;49815;51.618;0.336;2022-08-11T08:19:28;19;18;
63662;PMS5003;49815;51.618;0.336;2022-08-11T08:21:53;20;18;
63662;PMS5003;49815;51.618;0.336;2022-08-11T08:24:19;15;14;
63662;PMS5003;49815;51.618;0.336;2022-08-11T08:26:44;13;13;
63662;PMS5003;49815;51.618;0.336;2022-08-11T08:29:09;14;12;
63662;PMS5003;49815;51.618;0.336;2022-08-11T08:31:34;18;16;
63662;PMS5003;49815;51.618;0.336;2022-08-11T08:33:59;30;28;
63662;PMS5003;49815;51.618;0.336;2022-08-11T08:36:24;18;18;
63662;PMS5003;49815;51.618;0.336;2022-08-11T08:38:51;18;17;
63662;PMS5003;49815;51.618;0.336;2022-08-11T08:41:16;12;12;
63662;PMS5003;49815;51.618;0.336;2022-08-11T08:43:40;11;11;
63662;PMS5003;49815;51.618;0.336;2022-08-11T08:46:05;12;12;
63662;PMS5003;49815;51.618;0.336;2022-08-11T08:48:30;13;13;
63662;PMS5003;49815;51.618;0.336;2022-08-11T08:50:57;11;10;
63662;PMS5003;49815;51.618;0.336;2022-08-11T08:53:21;11;11;
63662;PMS5003;49815;51.618;0.336;2022-08-11T08:55:45;11;9;
63662;PMS5003;49815;51.618;0.336;2022-08-11T08:58:11;14;14;
63662;PMS5003;49815;51.618;0.336;2022-08-11T09:00:39;11;11;
63662;PMS5003;49815;51.618;0.336;2022-08-11T09:03:01;12;12;
63662;PMS5003;49815;51.618;0.336;2022-08-11T09:05:27;9;9;
63662;PMS5003;49815;51.618;0.336;2022-08-11T09:07:51;11;10;
63662;PMS5003;49815;51.618;0.336;2022-08-11T09:10:18;10;10;
63662;PMS5003;49815;51.618;0.336;2022-08-11T09:12:42;10;10;
63662;PMS5003;49815;51.618;0.336;2022-08-11T09:15:07;12;9;
63662;PMS5003;49815;51.618;0.336;2022-08-11T09:17:33;8;7;
63662;PMS5003;49815;51.618;0.336;2022-08-11T09:19:58;10;8;
63662;PMS5003;49815;51.618;0.336;2022-08-11T09:22:22;9;9;
63662;PMS5003;49815;51.618;0.336;2022-08-11T09:24:47;8;7;
63662;PMS5003;49815;51.618;0.336;2022-08-11T09:27:12;11;11;
63662;PMS5003;49815;51.618;0.336;2022-08-11T09:29:37;10;9;
63662;PMS5003;49815;51.618;0.336;2022-08-11T09:32:02;10;9;
63662;PMS5003;49815;51.618;0.336;2022-08-11T09:34:28;9;7;
63662;PMS5003;49815;51.618;0.336;2022-08-11T09:36:52;10;8;
63662;PMS5003;49815;51.618;0.336;2022-08-11T09:39:17;9;9;
63662;PMS5003;49815;51.618;0.336;2022-08-11T09:41:43;9;9;
63662;PMS5003;49815;51.618;0.336;2022-08-11T09:44:08;9;7;
63662;PMS5003;49815;51.618;0.336;2022-08-11T09:46:33;10;10;
63662;PMS5003;49815;51.618;0.336;2022-08-11T09:48:58;8;8;
63662;PMS5003;49815;51.618;0.336;2022-08-11T09:51:24;10;8;
63662;PMS5003;49815;51.618;0.336;2022-08-11T09:53:50;8;7;
63662;PMS5003;49815;51.618;0.336;2022-08-11T09:56:16;8;8;
63662;PMS5003;49815;51.618;0.336;2022-08-11T09:58:42;6;6;
63662;PMS5003;49815;51.618;0.336;2022-08-11T10:01:07;8;8;
63662;PMS5003;49815;51.618;0.336;2022-08-11T10:03:33;9;8;
63662;PMS5003;49815;51.618;0.336;2022-08-11T10:05:59;7;7;
63662;PMS5003;49815;51.618;0.336;2022-08-11T10:08:27;9;7;
63662;PMS5003;49815;51.618;0.336;2022-08-11T10:10:51;6;6;
63662;PMS5003;49815;51.618;0.336;2022-08-11T10:13:17;6;6;
63662;PMS5003;49815;51.618;0.336;2022-08-11T10:15:42;7;5;
63662;PMS5003;49815;51.618;0.336;2022-08-11T10:18:08;6;6;
63662;PMS5003;49815;51.618;0.336;2022-08-11T10:20:34;7;7;
63662;PMS5003;49815;51.618;0.336;2022-08-11T10:23:00;7;7;
63662;PMS5003;49815;51.618;0.336;2022-08-11T10:25:26;7;6;
63662;PMS5003;49815;51.618;0.336;2022-08-11T10:27:51;7;6;
63662;PMS5003;49815;51.618;0.336;2022-08-11T10:30:17;8;6;
63662;PMS5003;49815;51.618;0.336;2022-08-11T10:32:43;5;5;
63662;PMS5003;49815;51.618;0.336;2022-08-11T10:35:09;7;5;
63662;PMS5003;49815;51.618;0.336;2022-08-11T10:37:35;5;5;
63662;PMS5003;49815;51.618;0.336;2022-08-11T10:40:01;6;6;
63662;PMS5003;49815;51.618;0.336;2022-08-11T10:42:26;5;5;
63662;PMS5003;49815;51.618;0.336;2022-08-11T10:44:53;6;6;
63662;PMS5003;49815;51.618;0.336;2022-08-11T10:47:18;5;5;
63662;PMS5003;49815;51.618;0.336;2022-08-11T10:49:44;6;4;
63662;PMS5003;49815;51.618;0.336;2022-08-11T10:52:09;6;6;
63662;PMS5003;49815;51.618;0.336;2022-08-11T10:54:35;4;4;
63662;PMS5003;49815;51.618;0.336;2022-08-11T10:57:01;10;10;
63662;PMS5003;49815;51.618;0.336;2022-08-11T10:59:27;12;12;
63662;PMS5003;49815;51.618;0.336;2022-08-11T11:01:53;10;10;
63662;PMS5003;49815;51.618;0.336;2022-08-11T11:04:20;8;8;
63662;PMS5003;49815;51.618;0.336;2022-08-11T11:06:49;21;21;
63662;PMS5003;49815;51.618;0.336;2022-08-11T11:09:11;16;14;
63662;PMS5003;49815;51.618;0.336;2022-08-11T11:11:34;14;14;
63662;PMS5003;49815;51.618;0.336;2022-08-11T11:13:59;20;20;
63662;PMS5003;49815;51.618;0.336;2022-08-11T11:16:26;14;14;
63662;PMS5003;49815;51.618;0.336;2022-08-11T11:18:50;11;11;
63662;PMS5003;49815;51.618;0.336;2022-08-11T11:21:17;17;17;
63662;PMS5003;49815;51.618;0.336;2022-08-11T11:23:47;9;9;
63662;PMS5003;49815;51.618;0.336;2022-08-11T11:26:13;21;18;
63662;PMS5003;49815;51.618;0.336;2022-08-11T11:28:39;9;8;
63662;PMS5003;49815;51.618;0.336;2022-08-11T11:31:05;21;21;
63662;PMS5003;49815;51.618;0.336;2022-08-11T11:33:27;16;14;
63662;PMS5003;49815;51.618;0.336;2022-08-11T11:35:54;17;17;
63662;PMS5003;49815;51.618;0.336;2022-08-11T11:38:17;7;7;
63662;PMS5003;49815;51.618;0.336;2022-08-11T11:40:43;9;9;
63662;PMS5003;49815;51.618;0.336;2022-08-11T11:43:09;7;7;
63662;PMS5003;49815;51.618;0.336;2022-08-11T11:45:35;8;8;
63662;PMS5003;49815;51.618;0.336;2022-08-11T11:48:00;27;27;
63662;PMS5003;49815;51.618;0.336;2022-08-11T11:50:27;30;30;
63662;PMS5003;49815;51.618;0.336;2022-08-11T11:52:51;21;18;
63662;PMS5003;49815;51.618;0.336;2022-08-11T11:55:16;9;8;
63662;PMS5003;49815;51.618;0.336;2022-08-11T11:57:42;4;4;
63662;PMS5003;49815;51.618;0.336;2022-08-11T12:00:09;5;5;
63662;PMS5003;49815;51.618;0.336;2022-08-11T12:02:34;7;6;
63662;PMS5003;49815;51.618;0.336;2022-08-11T12:04:59;7;7;
63662;PMS5003;49815;51.618;0.336;2022-08-11T12:07:25;8;6;
63662;PMS5003;49815;51.618;0.336;2022-08-11T12:09:51;5;5;
63662;PMS5003;49815;51.618;0.336;2022-08-11T12:12:17;5;5;
63662;PMS5003;49815;51.618;0.336;2022-08-11T12:14:43;6;6;
63662;PMS5003;49815;51.618;0.336;2022-08-11T12:17:08;7;7;
63662;PMS5003;49815;51.618;0.336;2022-08-11T12:19:34;8;4;
63662;PMS5003;49815;51.618;0.336;2022-08-11T12:22:00;5;5;
63662;PMS5003;49815;51.618;0.336;2022-08-11T12:24:26;7;5;
63662;PMS5003;49815;51.618;0.336;2022-08-11T12:26:52;6;6;
63662;PMS5003;49815;51.618;0.336;2022-08-11T12:29:18;7;6;
63662;PMS5003;49815;51.618;0.336;2022-08-11T12:31:43;6;6;
63662;PMS5003;49815;51.618;0.336;2022-08-11T12:34:09;6;6;
63662;PMS5003;49815;51.618;0.336;2022-08-11T12:36:36;5;5;
63662;PMS5003;49815;51.618;0.336;2022-08-11T12:39:00;8;6;
63662;PMS5003;49815;51.618;0.336;2022-08-11T12:41:26;6;6;
63662;PMS5003;49815;51.618;0.336;2022-08-11T12:43:52;3;3;
63662;PMS5003;49815;51.618;0.336;2022-08-11T12:46:18;5;5;
63662;PMS5003;49815;51.618;0.336;2022-08-11T12:48:44;3;3;
63662;PMS5003;49815;51.618;0.336;2022-08-11T12:51:10;6;6;
63662;PMS5003;49815;51.618;0.336;2022-08-11T12:53:35;3;3;
63662;PMS5003;49815;51.618;0.336;2022-08-11T12:56:02;5;4;
63662;PMS5003;49815;51.618;0.336;2022-08-11T12:58:27;6;6;
63662;PMS5003;49815;51.618;0.336;2022-08-11T13:00:53;4;4;
63662;PMS5003;49815;51.618;0.336;2022-08-11T13:03:19;5;4;
63662;PMS5003;49815;51.618;0.336;2022-08-11T13:05:45;5;5;
63662;PMS5003;49815;51.618;0.336;2022-08-11T13:08:10;5;5;
63662;PMS5003;49815;51.618;0.336;2022-08-11T13:10:36;4;4;
63662;PMS5003;49815;51.618;0.336;2022-08-11T13:13:02;6;6;
63662;PMS5003;49815;51.618;0.336;2022-08-11T13:15:27;11;9;
63662;PMS5003;49815;51.618;0.336;2022-08-11T13:17:53;4;4;
63662;PMS5003;49815;51.618;0.336;2022-08-11T13:20:20;6;6;
63662;PMS5003;49815;51.618;0.336;2022-08-11T13:22:45;8;6;
63662;PMS5003;49815;51.618;0.336;2022-08-11T13:25:10;5;5;
63662;PMS5003;49815;51.618;0.336;2022-08-11T13:27:36;4;4;
63662;PMS5003;49815;51.618;0.336;2022-08-11T13:30:02;6;6;
63662;PMS5003;49815;51.618;0.336;2022-08-11T13:32:27;4;4;
63662;PMS5003;49815;51.618;0.336;2022-08-11T13:34:53;5;5;
63662;PMS5003;49815;51.618;0.336;2022-08-11T13:37:18;5;5;
63662;PMS5003;49815;51.618;0.336;2022-08-11T13:39:44;5;5;
63662;PMS5003;49815;51.618;0.336;2022-08-11T13:42:10;6;4;
63662;PMS5003;49815;51.618;0.336;2022-08-11T13:44:36;5;5;
63662;PMS5003;49815;51.618;0.336;2022-08-11T13:47:02;6;6;
63662;PMS5003;49815;51.618;0.336;2022-08-11T13:49:28;5;3;
63662;PMS5003;49815;51.618;0.336;2022-08-11T13:51:54;4;4;
63662;PMS5003;49815;51.618;0.336;2022-08-11T13:54:20;5;5;
63662;PMS5003;49815;51.618;0.336;2022-08-11T13:56:46;8;5;
63662;PMS5003;49815;51.618;0.336;2022-08-11T13:59:11;4;4;
63662;PMS5003;49815;51.618;0.336;2022-08-11T14:01:38;4;4;
63662;PMS5003;49815;51.618;0.336;2022-08-11T14:04:05;5;5;
63662;PMS5003;49815;51.618;0.336;2022-08-11T14:06:28;4;4;
63662;PMS5003;49815;51.618;0.336;2022-08-11T14:08:54;6;6;
63662;PMS5003;49815;51.618;0.336;2022-08-11T14:11:19;4;4;
63662;PMS5003;49815;51.618;0.336;2022-08-11T14:13:45;5;5;
63662;PMS5003;49815;51.618;0.336;2022-08-11T14:16:15;5;5;
63662;PMS5003;49815;51.618;0.336;2022-08-11T14:18:39;5;5;
63662;PMS5003;49815;51.618;0.336;2022-08-11T14:21:03;6;6;
63662;PMS5003;49815;51.618;0.336;2022-08-11T14:23:30;5;5;
63662;PMS5003;49815;51.618;0.336;2022-08-11T14:25:55;6;6;
63662;PMS5003;49815;51.618;0.336;2022-08-11T14:28:20;6;6;
63662;PMS5003;49815;51.618;0.336;2022-08-11T14:30:46;8;7;
63662;PMS5003;49815;51.618;0.336;2022-08-11T14:33:12;4;4;
63662;PMS5003;49815;51.618;0.336;2022-08-11T14:35:38;4;4;
63662;PMS5003;49815;51.618;0.336;2022-08-11T14:38:03;4;4;
63662;PMS5003;49815;51.618;0.336;2022-08-11T14:40:29;10;7;
63662;PMS5003;49815;51.618;0.336;2022-08-11T14:42:55;7;5;
63662;PMS5003;49815;51.618;0.336;2022-08-11T14:45:21;6;6;
63662;PMS5003;49815;51.618;0.336;2022-08-11T14:47:47;5;5;
63662;PMS5003;49815;51.618;0.336;2022-08-11T14:50:13;3;3;
63662;PMS5003;49815;51.618;0.336;2022-08-11T14:52:42;6;6;
63662;PMS5003;49815;51.618;0.336;2022-08-11T14:55:05;6;4;
63662;PMS5003;49815;51.618;0.336;2022-08-11T14:57:30;7;7;
63662;PMS5003;49815;51.618;0.336;2022-08-11T14:59:57;6;4;
63662;PMS5003;49815;51.618;0.336;2022-08-11T15:02:21;7;6;
63662;PMS5003;49815;51.618;0.336;2022-08-11T15:04:48;6;5;
63662;PMS5003;49815;51.618;0.336;2022-08-11T15:07:13;6;6;
63662;PMS5003;49815;51.618;0.336;2022-08-11T15:09:39;4;4;
63662;PMS5003;49815;51.618;0.336;2022-08-11T15:12:05;6;6;
63662;PMS5003;49815;51.618;0.336;2022-08-11T15:14:31;4;4;
63662;PMS5003;49815;51.618;0.336;2022-08-11T15:16:57;6;6;
63662;PMS5003;49815;51.618;0.336;2022-08-11T15:19:22;8;6;
63662;PMS5003;49815;51.618;0.336;2022-08-11T15:21:48;7;7;
63662;PMS5003;49815;51.618;0.336;2022-08-11T15:24:14;8;8;
63662;PMS5003;49815;51.618;0.336;2022-08-11T15:26:40;8;8;
63662;PMS5003;49815;51.618;0.336;2022-08-11T15:29:06;9;7;
63662;PMS5003;49815;51.618;0.336;2022-08-11T15:31:32;5;4;
63662;PMS5003;49815;51.618;0.336;2022-08-11T15:34:00;5;3;
63662;PMS5003;49815;51.618;0.336;2022-08-11T15:36:23;6;6;
63662;PMS5003;49815;51.618;0.336;2022-08-11T15:38:55;5;5;
63662;PMS5003;49815;51.618;0.336;2022-08-11T15:41:15;4;4;
63662;PMS5003;49815;51.618;0.336;2022-08-11T15:43:41;5;5;
63662;PMS5003;49815;51.618;0.336;2022-08-11T15:46:07;6;6;
63662;PMS5003;49815;51.618;0.336;2022-08-11T15:48:34;6;6;
63662;PMS5003;49815;51.618;0.336;2022-08-11T15:51:01;5;5;
63662;PMS5003;49815;51.618;0.336;2022-08-11T15:53:26;7;7;
63662;PMS5003;49815;51.618;0.336;2022-08-11T15:55:50;6;6;
63662;PMS5003;49815;51.618;0.336;2022-08-11T15:58:15;8;8;
63662;PMS5003;49815;51.618;0.336;2022-08-11T16:00:41;6;6;
63662;PMS5003;49815;51.618;0.336;2022-08-11T16:03:07;6;5;
63662;PMS5003;49815;51.618;0.336;2022-08-11T16:05:33;6;6;
63662;PMS5003;49815;51.618;0.336;2022-08-11T16:07:59;6;6;
63662;PMS5003;49815;51.618;0.336;2022-08-11T16:10:25;11;9;
63662;PMS5003;49815;51.618;0.336;2022-08-11T16:12:51;8;8;
63662;PMS5003;49815;51.618;0.336;2022-08-11T16:15:16;9;7;
63662;PMS5003;49815;51.618;0.336;2022-08-11T16:17:43;4;4;
63662;PMS5003;49815;51.618;0.336;2022-08-11T16:20:08;4;3;
63662;PMS5003;49815;51.618;0.336;2022-08-11T16:22:34;4;4;
63662;PMS5003;49815;51.618;0.336;2022-08-11T16:25:00;5;5;
63662;PMS5003;49815;51.618;0.336;2022-08-11T16:27:26;4;4;
63662;PMS5003;49815;51.618;0.336;2022-08-11T16:29:51;6;6;
63662;PMS5003;49815;51.618;0.336;2022-08-11T16:32:18;3;3;
63662;PMS5003;49815;51.618;0.336;2022-08-11T16:34:43;7;7;
63662;PMS5003;49815;51.618;0.336;2022-08-11T16:37:09;7;5;
63662;PMS5003;49815;51.618;0.336;2022-08-11T16:39:35;4;4;
63662;PMS5003;49815;51.618;0.336;2022-08-11T16:42:00;4;4;
63662;PMS5003;49815;51.618;0.336;2022-08-11T16:44:26;5;5;
63662;PMS5003;49815;51.618;0.336;2022-08-11T16:46:52;5;5;
63662;PMS5003;49815;51.618;0.336;2022-08-11T16:49:20;5;5;
63662;PMS5003;49815;51.618;0.336;2022-08-11T16:51:44;7;7;
63662;PMS5003;49815;51.618;0.336;2022-08-11T16:54:10;3;3;
63662;PMS5003;49815;51.618;0.336;2022-08-11T16:56:36;4;4;
63662;PMS5003;49815;51.618;0.336;2022-08-11T16:59:03;7;6;
63662;PMS5003;49815;51.618;0.336;2022-08-11T17:01:27;7;7;
63662;PMS5003;49815;51.618;0.336;2022-08-11T17:03:55;6;6;
63662;PMS5003;49815;51.618;0.336;2022-08-11T17:06:19;6;6;
63662;PMS5003;49815;51.618;0.336;2022-08-11T17:08:45;6;6;
63662;PMS5003;49815;51.618;0.336;2022-08-11T17:11:11;4;4;
63662;PMS5003;49815;51.618;0.336;2022-08-11T17:13:39;4;4;
63662;PMS5003;49815;51.618;0.336;2022-08-11T17:16:03;4;4;